Time;durP1;ratioP1;P1;durP2;ratioP2;P2;SDS_P1;SDS_P2;PMS_P1;PMS_P2;Temp;Humidity;BMP_temperature;BMP_pressure;BME280_temperature;BME280_humidity;BME280_pressure;Samples;Min_cycle;Max_cycle;Signal;HPM_P1;HPM_P2
2024/01/08 00:02:54;;;;;;;3.50;0.55;;;;;;;;;;5065674;28;20542;-75
2024/01/08 00:06:53;;;;;;;0.82;0.57;;;;;;;;;;5004030;28;20140;-74
2024/01/08 00:10:34;;;;;;;1.00;0.60;;;;;;;;;;5003023;28;20189;-74
2024/01/08 00:14:14;;;;;;;1.05;0.65;;;;;;;;;;4999132;28;24458;-73
2024/01/08 00:17:54;;;;;;;0.80;0.50;;;;;;;;;;5005382;28;20490;-71
2024/01/08 00:21:35;;;;;;;0.65;0.50;;;;;;;;;;5004285;28;20046;-76
2024/01/08 00:25:16;;;;;;;0.95;0.60;;;;;;;;;;5003670;28;20052;-72
2024/01/08 00:28:58;;;;;;;2.83;0.52;;;;;;;;;;5000160;28;20048;-73
2024/01/08 00:32:37;;;;;;;1.13;0.68;;;;;;;;;;5002480;28;20038;-74
2024/01/08 00:36:17;;;;;;;0.55;0.50;;;;;;;;;;5005174;28;20069;-73
2024/01/08 00:39:58;;;;;;;0.88;0.60;;;;;;;;;;5064279;28;20059;-72
2024/01/08 00:43:38;;;;;;;0.80;0.50;;;;;;;;;;5069542;28;20527;-72
2024/01/08 00:47:18;;;;;;;1.48;0.55;;;;;;;;;;5063864;28;20123;-74
2024/01/08 00:51:00;;;;;;;0.50;0.50;;;;;;;;;;5063400;28;20045;-72
2024/01/08 00:54:40;;;;;;;1.00;0.70;;;;;;;;;;5067646;28;20088;-72
2024/01/08 00:58:21;;;;;;;1.13;0.50;;;;;;;;;;5067359;28;20045;-73
2024/01/08 01:02:01;;;;;;;3.65;0.47;;;;;;;;;;5068742;28;20269;-74
2024/01/08 01:05:46;;;;;;;1.20;0.43;;;;;;;;;;5064516;28;20589;-74
2024/01/08 01:09:27;;;;;;;2.50;0.50;;;;;;;;;;5066597;28;20040;-74
2024/01/08 01:13:08;;;;;;;1.13;0.50;;;;;;;;;;5068650;28;20056;-75
2024/01/08 01:16:49;;;;;;;1.52;0.50;;;;;;;;;;5064046;28;20037;-75
2024/01/08 01:20:33;;;;;;;0.45;0.30;;;;;;;;;;5060831;28;20114;-74
2024/01/08 01:24:14;;;;;;;0.50;0.50;;;;;;;;;;5063843;28;20412;-74
2024/01/08 01:27:56;;;;;;;0.45;0.45;;;;;;;;;;5063519;28;20048;-73
2024/01/08 01:31:36;;;;;;;0.80;0.50;;;;;;;;;;5064741;28;20040;-73
2024/01/08 01:35:18;;;;;;;0.73;0.50;;;;;;;;;;5060594;28;20480;-75
2024/01/08 01:38:58;;;;;;;1.13;0.30;;;;;;;;;;5059177;28;20052;-74
2024/01/08 01:42:41;;;;;;;0.55;0.50;;;;;;;;;;5064999;28;20040;-73
2024/01/08 01:46:23;;;;;;;0.32;0.32;;;;;;;;;;5064117;28;20048;-75
2024/01/08 01:50:04;;;;;;;0.73;0.50;;;;;;;;;;5062361;28;20515;-75
2024/01/08 01:53:44;;;;;;;1.35;0.52;;;;;;;;;;5063645;28;20131;-74
2024/01/08 01:57:27;;;;;;;1.67;0.85;;;;;;;;;;5062546;28;20046;-74
2024/01/08 02:01:09;;;;;;;0.43;0.30;;;;;;;;;;5066470;28;20067;-73
2024/01/08 02:04:51;;;;;;;1.13;0.77;;;;;;;;;;5063502;28;20120;-73
2024/01/08 02:08:31;;;;;;;0.30;0.30;;;;;;;;;;5057648;28;20059;-73
2024/01/08 02:12:11;;;;;;;0.32;0.30;;;;;;;;;;5059344;28;20511;-72
2024/01/08 02:15:53;;;;;;;0.30;0.30;;;;;;;;;;5059810;28;20074;-74
2024/01/08 02:19:34;;;;;;;0.30;0.30;;;;;;;;;;5064719;28;20036;-71
2024/01/08 02:23:16;;;;;;;1.40;0.40;;;;;;;;;;5063391;28;20072;-73
2024/01/08 02:26:57;;;;;;;0.63;0.40;;;;;;;;;;5064303;28;20408;-72
2024/01/08 02:30:38;;;;;;;0.50;0.30;;;;;;;;;;5059716;28;20033;-72
2024/01/08 02:34:18;;;;;;;0.10;0.10;;;;;;;;;;5065474;28;20051;-73
2024/01/08 02:37:58;;;;;;;0.47;0.43;;;;;;;;;;5063216;28;20453;-71
2024/01/08 02:41:39;;;;;;;1.20;0.40;;;;;;;;;;5065843;28;20123;-73
2024/01/08 02:45:20;;;;;;;1.13;0.45;;;;;;;;;;5062630;28;20090;-71
2024/01/08 02:49:00;;;;;;;0.30;0.30;;;;;;;;;;5059280;28;20040;-73
2024/01/08 02:52:44;;;;;;;0.68;0.40;;;;;;;;;;5062724;28;20132;-72
2024/01/08 02:56:25;;;;;;;0.45;0.45;;;;;;;;;;5064475;28;20064;-71
2024/01/08 03:00:05;;;;;;;0.28;0.25;;;;;;;;;;5062766;28;20154;-73
2024/01/08 03:03:44;;;;;;;0.70;0.43;;;;;;;;;;5063775;28;20051;-72
2024/01/08 03:07:30;;;;;;;0.35;0.35;;;;;;;;;;5065565;28;20048;-73
2024/01/08 03:11:14;;;;;;;0.38;0.38;;;;;;;;;;5066089;28;20040;-74
2024/01/08 03:14:54;;;;;;;1.08;0.32;;;;;;;;;;5062927;28;20406;-74
2024/01/08 03:18:37;;;;;;;0.40;0.30;;;;;;;;;;5065138;28;20135;-75
2024/01/08 03:22:18;;;;;;;0.85;0.30;;;;;;;;;;5061583;28;20059;-74
2024/01/08 03:25:58;;;;;;;0.38;0.30;;;;;;;;;;5063113;28;20044;-75
2024/01/08 03:29:38;;;;;;;0.88;0.47;;;;;;;;;;5062349;28;20063;-74
2024/01/08 03:33:19;;;;;;;0.47;0.25;;;;;;;;;;5070198;28;20493;-73
2024/01/08 03:37:05;;;;;;;0.13;0.13;;;;;;;;;;5066606;28;20129;-73
2024/01/08 03:40:46;;;;;;;0.30;0.30;;;;;;;;;;5068975;28;20109;-72
2024/01/08 03:44:29;;;;;;;0.45;0.32;;;;;;;;;;5068670;28;20040;-73
2024/01/08 03:48:10;;;;;;;0.22;0.22;;;;;;;;;;5065038;28;20098;-72
2024/01/08 03:51:50;;;;;;;0.30;0.30;;;;;;;;;;5067655;28;20364;-72
2024/01/08 03:55:33;;;;;;;0.50;0.30;;;;;;;;;;5066268;28;20349;-73
2024/01/08 03:59:14;;;;;;;0.50;0.32;;;;;;;;;;5066587;28;20139;-74
2024/01/08 04:02:54;;;;;;;1.67;0.30;;;;;;;;;;5071656;27;20040;-72
2024/01/08 04:06:35;;;;;;;1.08;0.35;;;;;;;;;;5065455;28;20544;-72
2024/01/08 04:10:15;;;;;;;3.20;0.60;;;;;;;;;;5068184;28;20059;-73
2024/01/08 04:13:58;;;;;;;1.58;0.50;;;;;;;;;;5065437;28;20083;-72
2024/01/08 04:17:39;;;;;;;1.20;0.40;;;;;;;;;;5066535;28;20519;-71
2024/01/08 04:21:23;;;;;;;0.70;0.50;;;;;;;;;;5064391;28;20044;-72
2024/01/08 04:25:04;;;;;;;0.70;0.35;;;;;;;;;;5069105;28;20056;-72
2024/01/08 04:28:53;;;;;;;0.40;0.20;;;;;;;;;;5066828;28;20072;-72
2024/01/08 04:32:37;;;;;;;0.73;0.50;;;;;;;;;;5070449;28;20131;-73
2024/01/08 04:36:18;;;;;;;0.85;0.50;;;;;;;;;;5068083;28;20110;-73
2024/01/08 04:40:04;;;;;;;0.10;0.10;;;;;;;;;;5064450;28;20040;-71
2024/01/08 04:43:46;;;;;;;0.40;0.30;;;;;;;;;;5063213;28;20044;-72
2024/01/08 04:47:28;;;;;;;0.20;0.20;;;;;;;;;;5071118;28;20055;-72
2024/01/08 04:51:12;;;;;;;0.30;0.28;;;;;;;;;;5064693;28;20437;-74
2024/01/08 04:54:53;;;;;;;0.57;0.40;;;;;;;;;;5063514;28;20156;-73
2024/01/08 04:58:36;;;;;;;0.47;0.45;;;;;;;;;;5062696;28;20079;-74
2024/01/08 05:02:18;;;;;;;0.30;0.30;;;;;;;;;;5066719;28;20056;-72
2024/01/08 05:05:59;;;;;;;2.42;0.30;;;;;;;;;;5070594;28;20519;-73
2024/01/08 05:09:42;;;;;;;0.20;0.20;;;;;;;;;;5068352;28;20044;-72
2024/01/08 05:13:23;;;;;;;0.30;0.30;;;;;;;;;;5062598;28;20052;-71
2024/01/08 05:17:03;;;;;;;0.82;0.20;;;;;;;;;;5067354;28;20072;-73
2024/01/08 05:20:45;;;;;;;0.50;0.35;;;;;;;;;;5066357;28;20033;-73
2024/01/08 05:24:31;;;;;;;0.20;0.20;;;;;;;;;;5060426;28;20047;-73
2024/01/08 05:28:11;;;;;;;0.47;0.30;;;;;;;;;;5065927;28;20173;-71
2024/01/08 05:31:53;;;;;;;0.52;0.10;;;;;;;;;;5063085;28;20117;-72
2024/01/08 05:35:35;;;;;;;0.30;0.30;;;;;;;;;;5065003;28;20036;-72
2024/01/08 05:39:16;;;;;;;0.40;0.30;;;;;;;;;;5059780;28;20056;-71
2024/01/08 05:42:56;;;;;;;0.32;0.32;;;;;;;;;;5065209;28;20052;-72
2024/01/08 05:46:39;;;;;;;0.57;0.50;;;;;;;;;;5065505;28;20044;-72
2024/01/08 05:50:22;;;;;;;1.42;0.32;;;;;;;;;;5069383;28;20052;-71
2024/01/08 05:54:02;;;;;;;0.30;0.30;;;;;;;;;;5067206;28;20129;-73
2024/01/08 05:57:44;;;;;;;0.45;0.38;;;;;;;;;;5066866;28;20051;-76
2024/01/08 06:01:24;;;;;;;0.47;0.40;;;;;;;;;;5066207;28;20040;-73
2024/01/08 06:05:06;;;;;;;1.65;0.40;;;;;;;;;;5065239;28;20475;-70
2024/01/08 06:08:48;;;;;;;0.30;0.30;;;;;;;;;;5064961;28;20084;-71
2024/01/08 06:12:30;;;;;;;2.15;0.43;;;;;;;;;;5061866;28;20044;-72
2024/01/08 06:16:10;;;;;;;0.40;0.40;;;;;;;;;;5063129;28;20149;-72
2024/01/08 06:19:53;;;;;;;0.63;0.40;;;;;;;;;;5063122;28;20091;-69
2024/01/08 06:23:34;;;;;;;0.90;0.55;;;;;;;;;;5063016;28;20553;-72
2024/01/08 06:27:17;;;;;;;0.80;0.50;;;;;;;;;;5066022;28;20100;-73
2024/01/08 06:30:57;;;;;;;2.22;0.52;;;;;;;;;;5060417;28;20549;-72
2024/01/08 06:34:42;;;;;;;1.80;0.40;;;;;;;;;;5059802;28;20048;-73
2024/01/08 06:38:22;;;;;;;0.50;0.30;;;;;;;;;;5064253;28;20052;-72
2024/01/08 06:42:02;;;;;;;0.98;0.40;;;;;;;;;;5068925;28;20036;-73
2024/01/08 06:45:43;;;;;;;0.45;0.40;;;;;;;;;;5066857;28;20076;-73
2024/01/08 06:49:23;;;;;;;1.40;0.40;;;;;;;;;;5064534;28;20640;-71
2024/01/08 06:53:05;;;;;;;4.70;0.70;;;;;;;;;;5062534;28;20058;-74
2024/01/08 06:56:47;;;;;;;1.63;0.82;;;;;;;;;;5063610;28;20512;-71
2024/01/08 07:00:28;;;;;;;0.75;0.55;;;;;;;;;;5065551;28;20101;-73
2024/01/08 07:04:09;;;;;;;1.83;0.30;;;;;;;;;;5058643;28;20055;-71
2024/01/08 07:07:52;;;;;;;3.15;0.30;;;;;;;;;;5065778;28;20411;-71
2024/01/08 07:11:40;;;;;;;3.65;0.70;;;;;;;;;;5067689;28;20221;-72
2024/01/08 07:15:20;;;;;;;1.13;0.50;;;;;;;;;;5062558;28;20090;-72
2024/01/08 07:19:03;;;;;;;2.45;0.98;;;;;;;;;;5066217;28;20480;-73
2024/01/08 07:22:42;;;;;;;3.85;0.73;;;;;;;;;;5066431;28;20040;-71
2024/01/08 07:26:23;;;;;;;1.50;0.50;;;;;;;;;;5064178;28;20356;-72
2024/01/08 07:30:09;;;;;;;3.60;0.40;;;;;;;;;;5065351;28;20354;-67
2024/01/08 07:33:46;;;;;;;1.55;0.50;;;;;;;;;;5068401;28;20053;-70
2024/01/08 07:37:27;;;;;;;0.93;0.70;;;;;;;;;;5067729;28;20049;-64
2024/01/08 07:41:07;;;;;;;3.00;0.95;;;;;;;;;;5063371;28;20052;-70
2024/01/08 07:44:48;;;;;;;4.28;0.95;;;;;;;;;;5061144;28;20110;-71
2024/01/08 07:48:30;;;;;;;2.22;0.75;;;;;;;;;;5066145;28;20051;-69
2024/01/08 07:52:10;;;;;;;2.42;0.57;;;;;;;;;;5064839;28;20041;-68
2024/01/08 07:55:51;;;;;;;3.30;0.55;;;;;;;;;;5060882;28;20413;-68
2024/01/08 07:59:31;;;;;;;2.10;0.50;;;;;;;;;;5061109;28;20159;-68
2024/01/08 08:03:12;;;;;;;1.02;0.82;;;;;;;;;;5062627;28;20063;-67
2024/01/08 08:06:55;;;;;;;5.50;0.90;;;;;;;;;;5065934;28;20496;-69
2024/01/08 08:10:36;;;;;;;1.73;0.70;;;;;;;;;;5066701;28;20052;-67
2024/01/08 08:14:16;;;;;;;8.25;0.90;;;;;;;;;;5061187;28;20040;-67
2024/01/08 08:18:00;;;;;;;4.13;0.80;;;;;;;;;;5066585;28;22187;-66
2024/01/08 08:21:40;;;;;;;5.63;0.77;;;;;;;;;;5066715;28;20437;-70
2024/01/08 08:25:21;;;;;;;1.33;0.80;;;;;;;;;;5065486;28;20060;-76
2024/01/08 08:29:02;;;;;;;5.38;0.80;;;;;;;;;;5067074;28;20152;-75
2024/01/08 08:32:42;;;;;;;1.40;0.73;;;;;;;;;;5067153;28;20041;-74
2024/01/08 08:36:23;;;;;;;1.55;0.80;;;;;;;;;;5068238;28;20456;-72
2024/01/08 08:40:05;;;;;;;1.55;0.60;;;;;;;;;;5078964;28;20055;-72
2024/01/08 08:43:47;;;;;;;1.45;0.70;;;;;;;;;;5071299;28;20538;-74
2024/01/08 08:47:27;;;;;;;1.90;0.70;;;;;;;;;;5072816;28;20108;-74
2024/01/08 08:51:09;;;;;;;2.50;0.50;;;;;;;;;;5077073;28;20086;-74
2024/01/08 08:54:52;;;;;;;1.45;0.60;;;;;;;;;;5068307;28;20524;-73
2024/01/08 08:58:32;;;;;;;11.10;1.02;;;;;;;;;;5069578;28;20041;-73
2024/01/08 09:02:14;;;;;;;4.78;1.10;;;;;;;;;;5071117;28;20349;-74
2024/01/08 09:05:54;;;;;;;3.17;0.98;;;;;;;;;;5071226;28;20063;-73
2024/01/08 09:09:35;;;;;;;2.40;0.90;;;;;;;;;;5065596;28;20083;-71
2024/01/08 09:13:15;;;;;;;1.10;0.70;;;;;;;;;;5067958;28;20052;-73
2024/01/08 09:16:55;;;;;;;4.68;0.88;;;;;;;;;;5080427;28;20040;-74
2024/01/08 09:20:38;;;;;;;1.80;0.82;;;;;;;;;;5067459;28;20048;-74
2024/01/08 09:24:23;;;;;;;0.63;0.57;;;;;;;;;;5064925;28;20380;-72
2024/01/08 09:28:03;;;;;;;2.53;0.70;;;;;;;;;;5067759;28;20074;-74
2024/01/08 09:31:45;;;;;;;2.58;0.90;;;;;;;;;;5063702;28;20048;-74
2024/01/08 09:35:25;;;;;;;0.82;0.70;;;;;;;;;;5066101;28;20071;-74
2024/01/08 09:39:05;;;;;;;2.58;0.80;;;;;;;;;;5060103;28;20064;-74
2024/01/08 09:42:46;;;;;;;1.55;0.70;;;;;;;;;;5068930;28;20048;-71
2024/01/08 09:46:25;;;;;;;9.05;1.25;;;;;;;;;;5059263;28;20071;-74
2024/01/08 09:50:06;;;;;;;5.18;0.90;;;;;;;;;;5061007;28;20052;-76
2024/01/08 09:53:46;;;;;;;2.65;0.90;;;;;;;;;;5066232;28;20057;-75
2024/01/08 09:57:30;;;;;;;2.65;1.00;;;;;;;;;;5062749;28;20412;-73
2024/01/08 10:01:11;;;;;;;3.10;0.80;;;;;;;;;;5067043;28;20400;-74
2024/01/08 10:04:52;;;;;;;1.15;0.60;;;;;;;;;;5066767;28;20751;-72
2024/01/08 10:08:32;;;;;;;4.22;1.15;;;;;;;;;;5066712;28;20052;-74
2024/01/08 10:12:13;;;;;;;6.35;1.67;;;;;;;;;;5066916;28;20046;-72
2024/01/08 10:15:53;;;;;;;1.85;0.93;;;;;;;;;;5064257;28;20044;-75
2024/01/08 10:19:34;;;;;;;7.22;1.00;;;;;;;;;;5064125;28;20040;-73
2024/01/08 10:23:23;;;;;;;2.28;0.60;;;;;;;;;;5065169;28;20043;-73
2024/01/08 10:27:06;;;;;;;2.17;0.80;;;;;;;;;;5065483;28;20052;-72
2024/01/08 10:30:47;;;;;;;2.85;0.80;;;;;;;;;;5064317;28;20044;-74
2024/01/08 10:34:29;;;;;;;5.95;0.80;;;;;;;;;;5070065;28;20044;-72
2024/01/08 10:38:09;;;;;;;1.35;0.70;;;;;;;;;;5060811;28;20484;-74
2024/01/08 10:41:50;;;;;;;2.20;1.05;;;;;;;;;;5061784;28;20125;-74
2024/01/08 10:45:33;;;;;;;0.50;0.50;;;;;;;;;;5065004;28;20408;-72
2024/01/08 10:49:15;;;;;;;3.33;0.68;;;;;;;;;;5065568;28;20141;-72
2024/01/08 10:53:15;;;;;;;4.13;0.68;;;;;;;;;;5065272;28;20052;-72
2024/01/08 10:56:58;;;;;;;1.48;0.68;;;;;;;;;;5067013;28;20504;-72
2024/01/08 11:00:40;;;;;;;1.85;0.70;;;;;;;;;;5061328;28;20040;-74
2024/01/08 11:04:20;;;;;;;3.95;0.85;;;;;;;;;;5066251;28;20044;-74
2024/01/08 11:08:04;;;;;;;3.60;0.50;;;;;;;;;;5066267;28;20044;-72
2024/01/08 11:11:44;;;;;;;1.35;0.52;;;;;;;;;;5067588;28;20409;-73
2024/01/08 11:15:26;;;;;;;2.10;0.47;;;;;;;;;;5059358;28;20055;-73
2024/01/08 11:19:05;;;;;;;2.05;1.25;;;;;;;;;;5063189;28;20140;-73
2024/01/08 11:22:48;;;;;;;2.20;0.70;;;;;;;;;;5061091;28;20044;-74
2024/01/08 11:26:09;;;;;;;1.23;0.50;;;;;;;;;;5062841;28;20256;-72
2024/01/08 11:29:49;;;;;;;9.23;0.90;;;;;;;;;;5065997;28;20067;-73
2024/01/08 11:33:22;;;;;;;1.05;0.63;;;;;;;;;;5066869;28;20055;-72
2024/01/08 11:37:13;;;;;;;2.78;0.90;;;;;;;;;;5059035;28;20041;-73
2024/01/08 11:40:56;;;;;;;0.82;0.50;;;;;;;;;;5060836;28;20277;-75
2024/01/08 11:44:38;;;;;;;2.08;0.90;;;;;;;;;;5058105;28;20107;-73
2024/01/08 11:48:20;;;;;;;2.33;1.20;;;;;;;;;;5074239;28;20054;-72
2024/01/08 11:52:04;;;;;;;1.73;0.40;;;;;;;;;;5075075;28;20074;-73
2024/01/08 11:55:44;;;;;;;2.17;0.55;;;;;;;;;;5070418;28;20115;-73
2024/01/08 11:59:25;;;;;;;1.70;0.70;;;;;;;;;;5066498;28;20083;-73
2024/01/08 12:03:08;;;;;;;3.95;0.60;;;;;;;;;;5067152;28;20054;-75
2024/01/08 12:06:47;;;;;;;0.50;0.40;;;;;;;;;;5064585;28;20043;-74
2024/01/08 12:10:28;;;;;;;3.13;0.40;;;;;;;;;;5067728;28;20070;-72
2024/01/08 12:14:08;;;;;;;5.32;0.55;;;;;;;;;;5078714;28;20080;-72
2024/01/08 12:17:55;;;;;;;5.85;0.90;;;;;;;;;;5069188;28;20062;-72
2024/01/08 12:21:34;;;;;;;1.67;0.50;;;;;;;;;;5064749;28;20051;-74
2024/01/08 12:25:15;;;;;;;1.38;0.70;;;;;;;;;;5068023;28;20487;-70
2024/01/08 12:28:56;;;;;;;4.10;0.60;;;;;;;;;;5066170;28;20053;-73
2024/01/08 12:32:37;;;;;;;0.52;0.50;;;;;;;;;;5072741;28;20048;-73
2024/01/08 12:36:18;;;;;;;0.50;0.40;;;;;;;;;;5073375;28;20048;-72
2024/01/08 12:40:04;;;;;;;0.93;0.60;;;;;;;;;;5069827;28;20044;-72
2024/01/08 12:43:43;;;;;;;1.48;0.50;;;;;;;;;;5067394;28;20512;-73
2024/01/08 12:47:24;;;;;;;1.50;0.70;;;;;;;;;;5065985;28;20040;-74
2024/01/08 12:51:05;;;;;;;1.95;1.00;;;;;;;;;;5070925;28;20049;-71
2024/01/08 12:54:45;;;;;;;5.25;1.00;;;;;;;;;;5066756;28;20408;-73
2024/01/08 12:58:26;;;;;;;8.35;0.88;;;;;;;;;;5073189;28;20079;-73
2024/01/08 13:02:07;;;;;;;2.67;0.82;;;;;;;;;;5068535;28;20476;-73
2024/01/08 13:05:47;;;;;;;4.05;0.77;;;;;;;;;;5058438;28;20058;-72
2024/01/08 13:09:29;;;;;;;2.25;0.70;;;;;;;;;;5062893;28;20060;-73
2024/01/08 13:13:09;;;;;;;0.88;0.50;;;;;;;;;;5064531;28;20492;-70
2024/01/08 13:16:50;;;;;;;2.45;0.50;;;;;;;;;;5063261;28;20049;-72
2024/01/08 13:20:31;;;;;;;0.80;0.52;;;;;;;;;;5065201;28;20047;-72
2024/01/08 13:24:14;;;;;;;2.03;0.50;;;;;;;;;;5064392;28;21127;-72
2024/01/08 13:27:55;;;;;;;2.45;0.82;;;;;;;;;;5060122;28;20052;-72
2024/01/08 13:31:36;;;;;;;3.20;0.90;;;;;;;;;;5063531;28;20044;-73
2024/01/08 13:35:21;;;;;;;0.93;0.50;;;;;;;;;;5067412;28;20287;-72
2024/01/08 13:39:01;;;;;;;3.08;0.40;;;;;;;;;;5065363;28;20056;-71
2024/01/08 13:42:45;;;;;;;1.00;0.73;;;;;;;;;;5070420;28;20457;-70
2024/01/08 13:46:24;;;;;;;4.38;1.85;;;;;;;;;;5066355;28;20060;-70
2024/01/08 13:50:07;;;;;;;0.88;0.50;;;;;;;;;;5069090;28;20462;-71
2024/01/08 13:53:45;;;;;;;6.15;0.70;;;;;;;;;;5067745;28;20052;-74
2024/01/08 13:57:25;;;;;;;0.95;0.55;;;;;;;;;;5064598;28;20039;-74
2024/01/08 14:01:07;;;;;;;4.82;0.60;;;;;;;;;;5067400;28;20052;-72
2024/01/08 14:04:50;;;;;;;0.50;0.50;;;;;;;;;;5066475;28;20094;-73
2024/01/08 14:08:32;;;;;;;5.50;0.63;;;;;;;;;;5069888;28;20576;-73
2024/01/08 14:12:13;;;;;;;1.45;0.50;;;;;;;;;;5067647;28;20471;-72
2024/01/08 14:15:55;;;;;;;1.00;0.60;;;;;;;;;;5067101;28;20049;-71
2024/01/08 14:19:35;;;;;;;4.78;0.65;;;;;;;;;;5072645;28;20075;-73
2024/01/08 14:23:17;;;;;;;2.47;0.90;;;;;;;;;;5069240;28;20029;-72
2024/01/08 14:26:57;;;;;;;3.10;0.38;;;;;;;;;;5059777;28;20052;-73
2024/01/08 14:30:38;;;;;;;2.17;0.60;;;;;;;;;;5065655;28;20040;-73
2024/01/08 14:34:18;;;;;;;3.08;0.60;;;;;;;;;;5067834;28;20048;-71
2024/01/08 14:37:58;;;;;;;2.00;0.50;;;;;;;;;;5062059;28;20548;-72
2024/01/08 14:41:39;;;;;;;2.25;0.40;;;;;;;;;;5068776;28;20040;-70
2024/01/08 14:45:19;;;;;;;4.30;0.52;;;;;;;;;;5066868;28;20044;-72
2024/01/08 14:49:03;;;;;;;2.15;0.52;;;;;;;;;;5065803;28;20561;-74
2024/01/08 14:52:44;;;;;;;1.98;0.45;;;;;;;;;;5061814;28;20048;-74
2024/01/08 14:56:24;;;;;;;1.00;0.70;;;;;;;;;;5066348;28;20063;-76
2024/01/08 15:00:07;;;;;;;1.17;0.80;;;;;;;;;;5068646;28;20053;-72
2024/01/08 15:03:48;;;;;;;3.15;0.75;;;;;;;;;;5066955;28;20044;-73
2024/01/08 15:07:28;;;;;;;2.40;0.70;;;;;;;;;;5062085;28;20052;-74
2024/01/08 15:11:10;;;;;;;2.03;0.77;;;;;;;;;;5065045;28;20048;-70
2024/01/08 15:14:51;;;;;;;7.50;0.95;;;;;;;;;;5070643;28;20087;-72
2024/01/08 15:18:32;;;;;;;0.90;0.70;;;;;;;;;;5064500;28;20048;-70
2024/01/08 15:22:12;;;;;;;2.38;0.70;;;;;;;;;;5064919;28;20072;-73
2024/01/08 15:25:53;;;;;;;6.40;1.10;;;;;;;;;;5063161;28;20058;-73
2024/01/08 15:29:33;;;;;;;1.00;0.50;;;;;;;;;;5065609;28;20040;-72
2024/01/08 15:33:14;;;;;;;1.35;0.60;;;;;;;;;;5072147;28;20041;-72
2024/01/08 15:36:54;;;;;;;2.47;0.63;;;;;;;;;;5068459;28;20052;-72
2024/01/08 15:40:38;;;;;;;4.35;0.65;;;;;;;;;;5068837;28;20149;-73
2024/01/08 15:44:18;;;;;;;1.08;0.80;;;;;;;;;;5067930;28;20044;-71
2024/01/08 15:47:58;;;;;;;1.15;0.70;;;;;;;;;;5072391;28;20393;-72
2024/01/08 15:51:39;;;;;;;3.00;0.90;;;;;;;;;;5064712;28;21399;-72
2024/01/08 15:55:20;;;;;;;2.78;0.90;;;;;;;;;;5072463;28;20051;-71
2024/01/08 15:59:02;;;;;;;3.30;0.85;;;;;;;;;;5060127;28;20464;-73
2024/01/08 16:02:42;;;;;;;5.38;0.82;;;;;;;;;;5066399;28;20044;-71
2024/01/08 16:05:43;;;;;;;1.75;0.63;;;;;;;;;;5058712;28;20063;-72
2024/01/08 16:08:13;;;;;;;3.22;0.60;;;;;;;;;;5048255;28;20049;-74
2024/01/08 16:10:47;;;;;;;1.73;0.75;;;;;;;;;;5063959;28;20056;-74
2024/01/08 16:13:14;;;;;;;2.53;0.88;;;;;;;;;;5070149;28;20044;-72
2024/01/08 16:15:41;;;;;;;2.40;0.80;;;;;;;;;;5078484;28;20139;-70
2024/01/08 16:18:09;;;;;;;1.13;0.63;;;;;;;;;;5066081;28;20123;-72
2024/01/08 16:20:35;;;;;;;2.50;0.98;;;;;;;;;;5069851;28;20056;-72
2024/01/08 16:23:01;;;;;;;5.20;1.02;;;;;;;;;;5066226;28;20489;-70
2024/01/08 16:25:29;;;;;;;1.52;0.93;;;;;;;;;;5073640;28;20041;-73
2024/01/08 16:27:55;;;;;;;1.17;1.00;;;;;;;;;;5069357;28;20463;-70
2024/01/08 16:30:21;;;;;;;2.17;0.85;;;;;;;;;;5061980;28;20048;-76
2024/01/08 16:32:48;;;;;;;2.08;0.90;;;;;;;;;;5070170;28;20499;-73
2024/01/08 16:35:16;;;;;;;5.72;0.90;;;;;;;;;;5067404;28;20052;-72
2024/01/08 16:38:23;;;;;;;5.20;1.25;;;;;;;;;;5067537;28;20082;-71
2024/01/08 16:42:05;;;;;;;0.82;0.60;;;;;;;;;;5052861;28;20041;-72
2024/01/08 16:45:48;;;;;;;4.57;0.88;;;;;;;;;;5061556;28;20068;-73
2024/01/08 16:49:32;;;;;;;6.18;1.27;;;;;;;;;;5062891;28;20048;-76
2024/01/08 16:53:13;;;;;;;3.33;1.33;;;;;;;;;;5056046;28;20465;-73
2024/01/08 16:56:55;;;;;;;3.17;1.10;;;;;;;;;;5053409;28;20048;-74
2024/01/08 17:00:35;;;;;;;2.58;1.40;;;;;;;;;;5059511;28;20049;-72
2024/01/08 17:04:19;;;;;;;1.52;0.95;;;;;;;;;;5060653;28;20439;-78
2024/01/08 17:08:00;;;;;;;4.90;1.20;;;;;;;;;;5060568;28;20519;-73
2024/01/08 17:11:44;;;;;;;1.90;1.10;;;;;;;;;;5053709;28;20055;-75
2024/01/08 17:15:24;;;;;;;2.83;1.08;;;;;;;;;;5061312;28;20094;-76
2024/01/08 17:19:05;;;;;;;1.83;0.88;;;;;;;;;;5053592;28;20048;-75
2024/01/08 17:22:45;;;;;;;6.68;2.10;;;;;;;;;;5053748;28;20045;-75
2024/01/08 17:26:29;;;;;;;4.25;1.40;;;;;;;;;;5054830;28;20067;-74
2024/01/08 17:30:12;;;;;;;2.72;1.20;;;;;;;;;;5052491;28;20041;-76
2024/01/08 17:33:54;;;;;;;4.03;1.63;;;;;;;;;;5053952;28;20053;-73
2024/01/08 17:37:34;;;;;;;2.65;1.33;;;;;;;;;;5057598;28;20154;-75
2024/01/08 17:41:13;;;;;;;6.53;1.20;;;;;;;;;;5054992;28;20492;-76
2024/01/08 17:44:56;;;;;;;4.20;2.10;;;;;;;;;;5050956;28;20066;-75
2024/01/08 17:48:42;;;;;;;3.80;1.60;;;;;;;;;;5051099;28;20052;-75
2024/01/08 17:52:24;;;;;;;6.50;1.73;;;;;;;;;;5053634;28;20091;-76
2024/01/08 17:56:09;;;;;;;5.75;1.92;;;;;;;;;;5052595;28;20127;-76
2024/01/08 17:59:49;;;;;;;7.65;2.20;;;;;;;;;;5051740;28;20097;-75
2024/01/08 18:03:30;;;;;;;6.35;2.10;;;;;;;;;;5052072;28;20157;-76
2024/01/08 18:07:10;;;;;;;7.90;2.28;;;;;;;;;;5049083;28;20056;-75
2024/01/08 18:10:51;;;;;;;10.15;2.00;;;;;;;;;;5049130;28;20049;-77
2024/01/08 18:14:32;;;;;;;3.90;1.48;;;;;;;;;;5050220;28;20117;-75
2024/01/08 18:18:14;;;;;;;7.78;2.03;;;;;;;;;;5055926;28;20049;-77
2024/01/08 18:22:07;;;;;;;2.47;1.60;;;;;;;;;;5045940;28;20099;-77
2024/01/08 18:25:46;;;;;;;2.28;1.40;;;;;;;;;;5050456;28;20044;-76
2024/01/08 18:29:26;;;;;;;4.55;1.58;;;;;;;;;;5044548;28;21523;-75
2024/01/08 18:33:07;;;;;;;3.28;1.63;;;;;;;;;;5060927;28;20049;-74
2024/01/08 18:36:47;;;;;;;4.15;1.60;;;;;;;;;;5062780;28;20496;-77
2024/01/08 18:40:28;;;;;;;3.70;1.40;;;;;;;;;;5061473;28;20040;-73
2024/01/08 18:44:09;;;;;;;9.40;2.17;;;;;;;;;;5059124;28;20057;-73
2024/01/08 18:47:49;;;;;;;6.05;2.72;;;;;;;;;;5060898;28;20048;-71
2024/01/08 18:51:32;;;;;;;4.38;2.47;;;;;;;;;;5059048;28;20389;-75
2024/01/08 18:55:13;;;;;;;6.43;2.58;;;;;;;;;;5060120;28;20246;-74
2024/01/08 18:58:53;;;;;;;11.05;2.70;;;;;;;;;;5054171;28;20056;-75
2024/01/08 19:02:33;;;;;;;7.32;2.53;;;;;;;;;;5063202;28;20132;-73
2024/01/08 19:06:13;;;;;;;13.52;2.33;;;;;;;;;;5068602;28;20051;-73
2024/01/08 19:09:56;;;;;;;9.80;3.60;;;;;;;;;;5057822;28;20055;-74
2024/01/08 19:13:38;;;;;;;11.48;3.53;;;;;;;;;;5048564;28;20056;-73
2024/01/08 19:17:19;;;;;;;8.50;3.30;;;;;;;;;;5060407;28;20416;-72
2024/01/08 19:20:59;;;;;;;8.25;3.10;;;;;;;;;;5062994;28;20048;-73
2024/01/08 19:24:40;;;;;;;9.52;2.90;;;;;;;;;;5060273;28;20044;-73
2024/01/08 19:28:22;;;;;;;9.30;3.00;;;;;;;;;;5058455;28;20047;-74
2024/01/08 19:32:02;;;;;;;11.55;3.55;;;;;;;;;;5054931;28;20041;-73
2024/01/08 19:35:43;;;;;;;13.27;3.50;;;;;;;;;;5060269;28;20055;-74
2024/01/08 19:39:26;;;;;;;6.50;3.08;;;;;;;;;;5059020;28;20474;-73
2024/01/08 19:43:05;;;;;;;8.07;3.53;;;;;;;;;;5067399;28;20047;-76
2024/01/08 19:46:46;;;;;;;8.32;3.42;;;;;;;;;;5061018;28;20112;-75
2024/01/08 19:50:27;;;;;;;10.88;3.95;;;;;;;;;;5054342;28;20045;-78
2024/01/08 19:54:10;;;;;;;9.55;3.88;;;;;;;;;;5067449;28;20227;-78
2024/01/08 19:57:49;;;;;;;13.40;3.67;;;;;;;;;;5063115;28;20854;-77
2024/01/08 20:01:30;;;;;;;11.13;3.83;;;;;;;;;;5058487;28;20048;-80
2024/01/08 20:05:10;;;;;;;10.95;4.18;;;;;;;;;;5056285;28;20060;-78
2024/01/08 20:08:52;;;;;;;16.75;4.15;;;;;;;;;;5051167;28;20512;-74
2024/01/08 20:12:32;;;;;;;16.92;4.78;;;;;;;;;;5055546;28;20088;-73
2024/01/08 20:16:14;;;;;;;18.85;4.88;;;;;;;;;;5057434;28;20176;-72
2024/01/08 20:19:54;;;;;;;11.93;4.50;;;;;;;;;;5062422;28;20066;-76
2024/01/08 20:23:34;;;;;;;13.82;4.90;;;;;;;;;;5058295;28;20139;-74
2024/01/08 20:27:14;;;;;;;9.57;4.72;;;;;;;;;;5060248;28;20484;-73
2024/01/08 20:30:56;;;;;;;16.00;3.72;;;;;;;;;;5061417;28;20048;-72
2024/01/08 20:34:38;;;;;;;8.30;3.30;;;;;;;;;;5057028;28;20452;-73
2024/01/08 20:38:18;;;;;;;9.05;4.35;;;;;;;;;;5055735;28;20059;-74
2024/01/08 20:41:59;;;;;;;12.40;4.35;;;;;;;;;;5052731;28;20060;-72
2024/01/08 20:45:39;;;;;;;10.73;3.78;;;;;;;;;;5062143;28;20109;-77
2024/01/08 20:49:20;;;;;;;7.57;2.83;;;;;;;;;;5051058;28;20131;-76
2024/01/08 20:53:00;;;;;;;10.95;3.45;;;;;;;;;;5061526;28;20082;-77
2024/01/08 20:56:03;;;;;;;8.95;3.85;;;;;;;;;;5056398;28;20135;-77
2024/01/08 20:58:32;;;;;;;9.20;4.03;;;;;;;;;;5069675;28;20496;-77
2024/01/08 21:01:37;;;;;;;10.27;3.90;;;;;;;;;;5058469;28;20094;-78
2024/01/08 21:05:22;;;;;;;7.28;3.85;;;;;;;;;;5056589;28;20037;-78
2024/01/08 21:09:04;;;;;;;11.50;4.93;;;;;;;;;;5056800;28;20052;-77
2024/01/08 21:12:46;;;;;;;10.02;4.78;;;;;;;;;;5051049;28;20064;-78
2024/01/08 21:16:27;;;;;;;11.18;5.57;;;;;;;;;;5059929;28;20075;-78
2024/01/08 21:20:07;;;;;;;17.33;5.93;;;;;;;;;;5065745;28;20221;-76
2024/01/08 21:23:47;;;;;;;14.75;4.25;;;;;;;;;;5061019;28;20068;-77
2024/01/08 21:27:29;;;;;;;18.10;4.10;;;;;;;;;;5059055;28;20053;-78
2024/01/08 21:31:12;;;;;;;7.47;3.60;;;;;;;;;;5062340;28;20060;-79
2024/01/08 21:34:52;;;;;;;5.70;3.08;;;;;;;;;;5053248;28;20052;-79
2024/01/08 21:38:36;;;;;;;7.22;3.08;;;;;;;;;;5060135;28;20411;-79
2024/01/08 21:42:13;;;;;;;5.32;2.53;;;;;;;;;;5067523;28;20055;-78
2024/01/08 21:45:53;;;;;;;6.03;2.50;;;;;;;;;;5070200;28;20045;-79
2024/01/08 21:49:35;;;;;;;4.55;2.30;;;;;;;;;;5062989;28;20044;-79